Time;durP1;ratioP1;P1;durP2;ratioP2;P2;SDS_P1;SDS_P2;PMS_P1;PMS_P2;Temp;Humidity;BMP_temperature;BMP_pressure;BME280_temperature;BME280_humidity;BME280_pressure;Samples;Min_cycle;Max_cycle;Signal;HPM_P1;HPM_P2
2021/05/27 00:00:51;;;;;;;7.05;4.53;;;;;;;15.56;100.00;100166.94;5032802;28;20025;-77
2021/05/27 00:03:17;;;;;;;6.88;4.93;;;;;;;15.71;100.00;100198.84;5032602;28;20037;-77
2021/05/27 00:05:42;;;;;;;8.80;4.93;;;;;;;15.75;100.00;100198.38;5032143;28;20026;-77
2021/05/27 00:08:08;;;;;;;7.90;5.03;;;;;;;15.81;100.00;100197.72;5032582;28;20039;-77
2021/05/27 00:10:35;;;;;;;8.85;5.25;;;;;;;15.93;100.00;100192.97;5032935;28;20022;-77
2021/05/27 00:13:01;;;;;;;7.80;5.90;;;;;;;15.90;100.00;100195.94;5031444;28;20029;-77
2021/05/27 00:15:29;;;;;;;11.57;5.90;;;;;;;15.71;100.00;100170.63;5032484;28;20495;-77
2021/05/27 00:17:55;;;;;;;10.38;6.13;;;;;;;15.90;100.00;100189.84;5032400;28;20025;-77
2021/05/27 00:20:21;;;;;;;9.05;5.13;;;;;;;16.05;100.00;100198.78;5033043;28;20040;-77
2021/05/27 00:22:48;;;;;;;7.03;4.78;;;;;;;15.91;100.00;100155.31;5032236;28;20401;-77
2021/05/27 00:25:14;;;;;;;8.15;4.80;;;;;;;15.92;100.00;100190.47;5032326;28;20053;-77
2021/05/27 00:27:44;;;;;;;6.32;5.07;;;;;;;15.94;100.00;100196.44;5047604;28;20042;-77
2021/05/27 00:30:11;;;;;;;6.82;5.15;;;;;;;15.97;100.00;100190.84;5032330;28;20028;-77
2021/05/27 00:32:38;;;;;;;8.77;5.68;;;;;;;15.93;100.00;100184.19;5032727;28;20116;-77
2021/05/27 00:35:05;;;;;;;10.57;4.68;;;;;;;16.01;100.00;100184.25;5032544;28;20029;-78
2021/05/27 00:37:30;;;;;;;7.55;5.43;;;;;;;15.98;100.00;100181.91;5032163;28;20060;-77
2021/05/27 00:39:56;;;;;;;6.57;5.35;;;;;;;15.76;100.00;100163.06;5030993;28;20060;-77
2021/05/27 00:42:21;;;;;;;9.43;6.13;;;;;;;15.92;100.00;100172.00;5032221;28;20030;-77
2021/05/27 00:45:00;;;;;;;9.48;5.97;;;;;;;15.98;100.00;100168.69;5032069;28;20473;-77
2021/05/27 00:47:26;;;;;;;7.90;5.43;;;;;;;16.14;100.00;100203.09;5032169;28;20033;-78
2021/05/27 00:49:52;;;;;;;7.55;4.95;;;;;;;16.16;100.00;100208.19;5032101;28;20032;-77
2021/05/27 00:52:17;;;;;;;10.32;6.20;;;;;;;16.19;100.00;100208.69;5032146;28;20021;-77
2021/05/27 00:54:43;;;;;;;7.70;5.40;;;;;;;16.04;100.00;100191.84;5030826;28;20025;-77
2021/05/27 00:57:14;;;;;;;10.00;5.93;;;;;;;16.31;100.00;100224.28;5032051;28;20030;-77
2021/05/27 00:59:40;;;;;;;7.05;5.40;;;;;;;16.39;100.00;100211.88;5031320;28;20150;-77
2021/05/27 01:02:05;;;;;;;6.50;5.47;;;;;;;16.46;100.00;100218.16;5032178;28;20104;-76
2021/05/27 01:04:31;;;;;;;8.13;5.50;;;;;;;16.34;100.00;100202.78;5032177;28;20029;-76
2021/05/27 01:06:56;;;;;;;9.13;6.07;;;;;;;16.15;100.00;100167.72;5031112;28;20037;-76
2021/05/27 01:09:22;;;;;;;10.68;6.63;;;;;;;16.31;100.00;100192.53;5030840;28;20104;-77
2021/05/27 01:11:47;;;;;;;9.23;7.22;;;;;;;16.03;100.00;100150.53;5032494;28;20038;-77
2021/05/27 01:15:25;;;;;;;10.65;6.40;;;;;;;16.11;100.00;100158.47;5031918;28;20036;-76
2021/05/27 01:17:00;;;;;;;8.85;6.90;;;;;;;16.24;100.00;100174.69;5032607;28;20104;-76
2021/05/27 01:19:25;;;;;;;9.15;7.38;;;;;;;16.03;100.00;100147.88;5035818;28;20408;-76
2021/05/27 01:21:51;;;;;;;9.90;8.23;;;;;;;15.88;100.00;100146.88;5034393;28;20400;-76
2021/05/27 01:24:16;;;;;;;9.40;7.75;;;;;;;15.80;100.00;100140.59;5035550;28;20396;-75
2021/05/27 01:26:42;;;;;;;11.35;7.53;;;;;;;15.87;100.00;100147.88;5035511;28;20488;-77
2021/05/27 01:29:07;;;;;;;9.23;8.00;;;;;;;15.99;100.00;100155.31;5035584;28;20029;-76
2021/05/27 01:31:32;;;;;;;19.45;9.65;;;;;;;15.70;100.00;100102.94;5035418;28;20112;-77
2021/05/27 01:33:58;;;;;;;10.20;8.82;;;;;;;15.80;100.00;100143.25;5035355;28;20485;-77
2021/05/27 01:36:23;;;;;;;13.50;8.70;;;;;;;15.76;100.00;100154.28;5035293;28;20032;-77
2021/05/27 01:38:49;;;;;;;12.57;9.38;;;;;;;15.71;100.00;100154.78;5035338;28;20069;-76
2021/05/27 01:41:14;;;;;;;12.65;10.07;;;;;;;15.45;100.00;100127.59;5033995;28;20030;-76
2021/05/27 01:43:40;;;;;;;12.05;9.38;;;;;;;15.73;100.00;100152.81;5035446;28;20029;-77
2021/05/27 01:46:05;;;;;;;12.00;10.02;;;;;;;15.79;100.00;100168.03;5035131;28;20087;-76
2021/05/27 01:48:32;;;;;;;13.27;9.57;;;;;;;15.69;100.00;100140.91;5035050;28;20033;-75
2021/05/27 01:50:57;;;;;;;10.82;8.90;;;;;;;15.70;100.00;100131.16;5033824;28;20405;-77
2021/05/27 01:53:23;;;;;;;11.52;9.10;;;;;;;15.90;100.00;100158.13;5034957;28;20022;-76
2021/05/27 01:55:49;;;;;;;14.63;10.55;;;;;;;15.66;100.00;100127.13;5034875;28;20030;-78
2021/05/27 01:58:17;;;;;;;11.90;10.18;;;;;;;15.71;100.00;100138.91;5035122;28;20064;-77
2021/05/27 02:00:45;;;;;;;11.07;9.98;;;;;;;15.65;100.00;100121.03;5033634;28;20029;-76
2021/05/27 02:03:10;;;;;;;13.73;10.27;;;;;;;15.88;100.00;100155.63;5033573;28;20040;-77
2021/05/27 02:05:36;;;;;;;13.82;10.48;;;;;;;15.93;100.00;100157.78;5034758;28;20468;-78
2021/05/27 02:08:02;;;;;;;12.50;9.98;;;;;;;15.98;100.00;100144.91;5033284;28;20033;-77
2021/05/27 02:10:28;;;;;;;13.30;11.02;;;;;;;15.74;100.00;100122.75;5035066;28;20110;-77
2021/05/27 02:12:54;;;;;;;11.20;9.88;;;;;;;15.94;100.00;100148.88;5034695;28;20061;-77
2021/05/27 02:15:19;;;;;;;19.95;11.38;;;;;;;15.91;100.00;100150.03;5033338;28;20026;-76
2021/05/27 02:17:45;;;;;;;15.52;11.48;;;;;;;15.70;100.00;100124.06;5034503;28;20400;-77
2021/05/27 02:20:10;;;;;;;13.85;10.68;;;;;;;15.88;100.00;100154.81;5034568;28;20026;-77
2021/05/27 02:22:36;;;;;;;13.38;10.63;;;;;;;15.65;100.00;100117.56;5034686;28;20072;-76
2021/05/27 02:25:03;;;;;;;13.35;8.43;;;;;;;15.86;100.00;100141.75;5032463;28;20479;-78
2021/05/27 02:27:29;;;;;;;11.50;9.55;;;;;;;15.87;100.00;100121.44;5032857;28;20026;-76
2021/05/27 02:29:55;;;;;;;11.18;10.02;;;;;;;15.80;100.00;100100.16;5034045;28;20392;-78
2021/05/27 02:32:20;;;;;;;16.95;13.80;;;;;;;15.81;100.00;100113.19;5033619;28;20032;-77
2021/05/27 02:34:46;;;;;;;11.70;10.45;;;;;;;15.80;100.00;100127.38;5034260;28;20025;-77
2021/05/27 02:37:11;;;;;;;15.73;11.15;;;;;;;15.59;100.00;100122.53;5032973;28;20021;-77
2021/05/27 02:39:37;;;;;;;16.98;11.52;;;;;;;15.67;100.00;100116.47;5033448;28;20111;-77
2021/05/27 02:42:03;;;;;;;15.43;10.93;;;;;;;15.97;100.00;100145.91;5034403;28;20033;-77
2021/05/27 02:44:28;;;;;;;12.63;11.02;;;;;;;15.70;100.00;100108.22;5034127;28;20033;-77
2021/05/27 02:46:54;;;;;;;15.60;12.02;;;;;;;15.95;100.00;100155.81;5034047;28;20028;-77
2021/05/27 02:49:20;;;;;;;13.95;10.68;;;;;;;15.97;100.00;100159.13;5033794;28;20029;-77
2021/05/27 02:51:47;;;;;;;12.13;10.93;;;;;;;15.97;100.00;100159.13;5033907;28;20017;-77
2021/05/27 02:54:12;;;;;;;12.38;10.63;;;;;;;15.94;100.00;100157.63;5033596;28;20500;-77
2021/05/27 02:56:38;;;;;;;15.70;11.07;;;;;;;15.93;100.00;100132.19;5033826;28;20026;-77
2021/05/27 02:59:03;;;;;;;14.90;11.70;;;;;;;16.13;100.00;100153.88;5034166;28;20029;-77
2021/05/27 03:01:29;;;;;;;12.32;11.02;;;;;;;16.13;100.00;100153.88;5033756;28;20025;-76
2021/05/27 03:03:54;;;;;;;16.15;12.57;;;;;;;16.11;100.00;100161.13;5033733;28;20025;-76
2021/05/27 03:06:20;;;;;;;13.35;11.80;;;;;;;16.14;100.00;100155.50;5033661;28;20446;-76
2021/05/27 03:08:45;;;;;;;15.45;12.27;;;;;;;16.05;100.00;100132.69;5033661;28;20052;-76
2021/05/27 03:11:11;;;;;;;11.55;10.07;;;;;;;16.22;100.00;100152.03;5033471;28;20123;-76
2021/05/27 03:13:37;;;;;;;13.60;10.52;;;;;;;16.23;100.00;100151.03;5033427;28;20115;-77
2021/05/27 03:16:03;;;;;;;13.18;10.18;;;;;;;16.14;100.00;100123.78;5033697;28;20025;-77
2021/05/27 03:18:30;;;;;;;14.05;10.73;;;;;;;16.18;100.00;100148.06;5032429;28;20456;-77
2021/05/27 03:20:55;;;;;;;11.02;9.90;;;;;;;16.16;100.00;100153.50;5033361;28;20374;-77
2021/05/27 03:23:21;;;;;;;14.80;10.27;;;;;;;16.19;100.00;100155.81;5033811;28;20029;-78
2021/05/27 03:25:47;;;;;;;14.35;11.25;;;;;;;16.21;100.00;100142.47;5032908;28;20433;-77
2021/05/27 03:28:12;;;;;;;11.52;9.23;;;;;;;16.01;100.00;100097.00;5033349;28;20395;-77
2021/05/27 03:30:38;;;;;;;11.02;9.60;;;;;;;16.26;100.00;100134.84;5033090;28;20156;-77
2021/05/27 03:33:04;;;;;;;11.25;8.90;;;;;;;16.14;100.00;100112.38;5033035;28;20437;-77
2021/05/27 03:35:30;;;;;;;11.48;9.05;;;;;;;16.09;100.00;100096.19;5033088;28;20030;-78
2021/05/27 03:37:55;;;;;;;16.05;8.85;;;;;;;16.29;100.00;100121.28;5031740;28;20033;-77
2021/05/27 03:40:21;;;;;;;11.63;8.55;;;;;;;16.26;100.00;100103.94;5032142;28;20053;-77
2021/05/27 03:42:47;;;;;;;9.23;8.27;;;;;;;16.41;100.00;100127.09;5032968;28;20017;-77
2021/05/27 03:45:16;;;;;;;10.95;8.05;;;;;;;16.21;100.00;100097.50;5031630;28;20029;-78
2021/05/27 03:47:42;;;;;;;10.60;7.00;;;;;;;16.26;100.00;100103.94;5032947;28;20033;-77
2021/05/27 03:50:11;;;;;;;9.23;7.00;;;;;;;16.37;100.00;100134.53;5032734;28;20115;-77
2021/05/27 03:52:38;;;;;;;10.30;7.18;;;;;;;16.27;100.00;100102.13;5032856;28;20026;-78
2021/05/27 03:55:05;;;;;;;9.40;7.35;;;;;;;16.29;100.00;100095.66;5032743;28;20025;-77
2021/05/27 03:57:31;;;;;;;8.80;6.93;;;;;;;16.54;100.00;100137.97;5032749;28;20091;-78
2021/05/27 04:02:44;;;;;;;13.57;6.72;;;;;;;16.68;100.00;100155.81;5032976;28;20095;-78
2021/05/27 04:07:55;;;;;;;9.95;6.47;;;;;;;16.50;100.00;100126.91;5032788;28;20044;-77
2021/05/27 04:10:20;;;;;;;8.48;6.05;;;;;;;16.51;100.00;100133.84;5031311;28;20026;-76
2021/05/27 04:12:46;;;;;;;9.57;6.78;;;;;;;16.66;100.00;100156.97;5032614;28;20084;-76
2021/05/27 04:17:47;;;;;;;10.35;6.68;;;;;;;16.71;100.00;100144.91;5032439;28;20036;-77
2021/05/27 04:20:13;;;;;;;8.48;7.28;;;;;;;16.68;100.00;100126.72;5031044;28;20389;-77
2021/05/27 04:22:40;;;;;;;8.55;7.10;;;;;;;16.56;100.00;100133.34;5032603;28;20037;-77
2021/05/27 04:25:06;;;;;;;8.18;6.88;;;;;;;16.48;100.00;100105.09;5031782;28;20049;-77
2021/05/27 04:27:31;;;;;;;7.93;7.10;;;;;;;16.29;100.00;100108.88;5031316;28;20381;-76
2021/05/27 04:30:12;;;;;;;7.55;6.28;;;;;;;16.60;100.00;100132.00;5031662;28;20103;-75
2021/05/27 04:35:23;;;;;;;12.10;7.43;;;;;;;16.37;100.00;100112.50;5030661;28;20428;-77
2021/05/27 04:37:49;;;;;;;8.57;5.85;;;;;;;16.50;100.00;100118.97;5030484;28;20029;-77
2021/05/27 04:40:15;;;;;;;8.57;4.95;;;;;;;16.86;100.00;100137.09;5030344;28;20030;-76
2021/05/27 04:42:41;;;;;;;6.28;4.57;;;;;;;16.91;100.00;100134.78;5030635;28;20041;-77
2021/05/27 04:45:07;;;;;;;5.95;4.63;;;;;;;17.05;100.00;100140.38;5031138;28;20120;-77
2021/05/27 04:47:32;;;;;;;7.90;4.72;;;;;;;16.75;100.00;100111.00;5032362;28;20056;-77
2021/05/27 04:49:58;;;;;;;5.80;3.80;;;;;;;17.05;100.00;100143.84;5032319;28;20025;-77
2021/05/27 04:52:23;;;;;;;5.85;4.07;;;;;;;16.88;100.00;100121.91;5033996;28;20079;-77
2021/05/27 04:54:49;;;;;;;7.60;5.25;;;;;;;17.05;100.00;100154.44;5036114;28;20037;-78
2021/05/27 04:57:14;;;;;;;7.28;4.65;;;;;;;16.95;100.00;100124.69;5036392;28;20022;-78
2021/05/27 04:59:40;;;;;;;6.43;4.25;;;;;;;17.05;100.00;100129.78;5036107;28;20036;-77
2021/05/27 05:02:05;;;;;;;8.55;4.30;;;;;;;17.23;100.00;100167.44;5036086;28;20481;-78
2021/05/27 05:04:30;;;;;;;8.23;5.18;;;;;;;17.31;100.00;100158.63;5036163;28;20029;-78
2021/05/27 05:06:56;;;;;;;7.45;4.63;;;;;;;17.51;100.00;100167.81;5035976;28;20025;-77
2021/05/27 05:09:21;;;;;;;8.68;3.90;;;;;;;17.57;100.00;100158.34;5035671;28;20108;-78
2021/05/27 05:11:47;;;;;;;6.50;4.55;;;;;;;16.98;100.00;100132.28;5036033;28;20029;-78
2021/05/27 05:14:12;;;;;;;7.00;4.63;;;;;;;16.98;100.00;100132.28;5035523;28;20037;-78
2021/05/27 05:16:38;;;;;;;8.43;4.32;;;;;;;17.03;100.00;100135.25;5036043;28;20021;-78
2021/05/27 05:19:03;;;;;;;7.45;3.97;;;;;;;17.26;100.00;100150.41;5035571;28;20469;-78
2021/05/27 05:21:29;;;;;;;5.60;3.83;;;;;;;17.35;100.00;100167.91;5035582;28;20461;-76
2021/05/27 05:23:54;;;;;;;5.43;4.22;;;;;;;17.33;100.00;100167.25;5035146;28;20417;-78
2021/05/27 05:26:19;;;;;;;10.70;4.38;;;;;;;17.36;100.00;100169.56;5034373;28;20100;-79
2021/05/27 05:28:45;;;;;;;5.75;4.07;;;;;;;17.37;100.00;100142.06;5033684;28;20030;-77
2021/05/27 05:31:10;;;;;;;7.03;3.70;;;;;;;17.28;100.00;100149.22;5033820;28;20033;-76
2021/05/27 05:33:36;;;;;;;9.13;3.95;;;;;;;17.25;100.00;100136.34;5022611;28;20021;-77
2021/05/27 05:36:01;;;;;;;6.07;3.83;;;;;;;17.41;100.00;100127.47;5024661;28;20029;-77
2021/05/27 05:38:27;;;;;;;5.63;3.83;;;;;;;17.49;100.00;100161.88;5034670;28;20037;-76
2021/05/27 05:40:52;;;;;;;6.13;3.50;;;;;;;17.60;100.00;100165.97;5033548;28;20029;-76
2021/05/27 05:43:17;;;;;;;5.40;3.25;;;;;;;17.51;100.00;100159.03;5033219;28;20477;-76
2021/05/27 05:45:43;;;;;;;7.57;4.30;;;;;;;17.40;100.00;100131.13;5034675;28;20029;-77
2021/05/27 05:48:09;;;;;;;8.77;4.20;;;;;;;17.77;100.00;100167.56;5034158;28;20408;-77
2021/05/27 05:50:48;;;;;;;7.35;3.80;;;;;;;17.77;100.00;100145.53;5033657;28;20037;-76
2021/05/27 05:53:24;;;;;;;7.00;3.72;;;;;;;17.94;100.00;100171.75;5035296;28;20484;-77
2021/05/27 05:55:52;;;;;;;5.75;3.55;;;;;;;17.83;100.00;100176.63;5034366;28;20040;-77
2021/05/27 05:58:17;;;;;;;6.20;3.00;;;;;;;17.91;100.00;100176.59;5034413;28;20033;-77
2021/05/27 06:00:44;;;;;;;6.35;3.17;;;;;;;17.58;100.00;100176.75;5033446;28;20390;-77
2021/05/27 06:03:10;;;;;;;7.78;3.58;;;;;;;17.75;100.00;100190.75;5033517;28;20034;-77
2021/05/27 06:05:36;;;;;;;5.13;3.10;;;;;;;17.61;100.00;100172.91;5033827;28;20108;-78
2021/05/27 06:08:02;;;;;;;6.72;3.67;;;;;;;17.89;100.00;100200.63;5034695;28;20109;-77
2021/05/27 06:10:28;;;;;;;5.28;3.17;;;;;;;17.76;100.00;100165.06;5033476;28;20068;-73
2021/05/27 06:12:57;;;;;;;4.90;2.60;;;;;;;17.93;100.00;100187.84;5033470;28;20065;-75
2021/05/27 06:15:24;;;;;;;7.18;3.50;;;;;;;18.08;100.00;100187.91;5032635;28;20112;-73
2021/05/27 06:17:51;;;;;;;8.32;3.22;;;;;;;18.01;100.00;100163.91;5032205;28;20033;-74
2021/05/27 06:20:20;;;;;;;9.00;2.80;;;;;;;18.35;100.00;100182.06;5032601;28;20029;-75
2021/05/27 06:22:46;;;;;;;4.25;2.80;;;;;;;18.17;100.00;100155.03;5032791;28;20038;-74
2021/05/27 06:25:12;;;;;;;5.80;2.60;;;;;;;18.53;100.00;100192.38;5034492;28;20088;-75
2021/05/27 06:27:38;;;;;;;5.22;2.90;;;;;;;18.54;100.00;100196.69;5034424;28;20116;-73
2021/05/27 06:30:05;;;;;;;4.60;2.72;;;;;;;18.57;100.00;100195.50;5033127;28;20112;-73
2021/05/27 06:32:34;;;;;;;5.53;3.22;;;;;;;18.58;100.00;100197.13;5032863;28;20163;-73
2021/05/27 06:35:00;;;;;;;3.53;2.60;;;;;;;18.63;100.00;100192.94;5033877;28;20103;-74
2021/05/27 06:37:25;;;;;;;7.43;3.25;;;;;;;18.54;100.00;100166.66;5034049;28;20080;-73
2021/05/27 06:39:50;;;;;;;6.00;3.03;;;;;;;18.69;100.00;100191.38;5033360;28;20026;-79
2021/05/27 06:42:16;;;;;;;6.00;2.78;;;;;;;18.55;100.00;100169.13;5033553;28;20033;-80
2021/05/27 06:44:41;;;;;;;5.43;2.70;;;;;;;18.91;100.00;100196.88;5034197;28;20029;-80
2021/05/27 06:47:07;;;;;;;9.50;2.75;;;;;;;19.13;100.00;100192.47;5033502;28;20060;-75
2021/05/27 06:49:32;;;;;;;4.82;2.92;;;;;;;19.34;100.00;100196.06;5033910;28;20389;-77
2021/05/27 06:51:58;;;;;;;4.10;2.08;;;;;;;19.27;100.00;100189.84;5034027;28;20052;-75
2021/05/27 06:54:24;;;;;;;4.10;2.65;;;;;;;18.74;100.00;100159.03;5033928;28;20029;-74
2021/05/27 06:56:52;;;;;;;5.63;2.72;;;;;;;18.49;100.00;100148.59;5033803;28;20049;-76
2021/05/27 06:59:17;;;;;;;5.88;2.60;;;;;;;18.86;100.00;100176.16;5032544;28;20103;-74
2021/05/27 07:01:44;;;;;;;25.92;3.60;;;;;;;18.27;100.00;100129.09;5032548;28;20033;-73
2021/05/27 07:04:09;;;;;;;7.20;2.92;;;;;;;18.50;100.00;100160.91;5032374;28;20029;-74
2021/05/27 07:06:35;;;;;;;6.97;3.22;;;;;;;18.20;100.00;100132.63;5033525;28;20031;-74
2021/05/27 07:09:00;;;;;;;8.02;2.83;;;;;;;18.20;100.00;100143.25;5033308;28;20076;-73
2021/05/27 07:11:26;;;;;;;5.38;2.55;;;;;;;17.96;100.00;100117.75;5033154;28;20033;-74
2021/05/27 07:13:51;;;;;;;3.25;2.13;;;;;;;18.14;100.00;100116.41;5033107;28;20407;-72
2021/05/27 07:16:17;;;;;;;5.20;2.90;;;;;;;18.18;100.00;100125.66;5032794;28;20021;-73
2021/05/27 07:18:42;;;;;;;5.82;3.33;;;;;;;18.53;100.00;100154.41;5033446;28;20033;-72
2021/05/27 07:21:08;;;;;;;4.53;2.90;;;;;;;18.65;100.00;100172.34;5033661;28;20025;-73
2021/05/27 07:23:33;;;;;;;5.60;3.65;;;;;;;19.04;100.00;100189.94;5033566;28;20025;-72
2021/05/27 07:26:03;;;;;;;4.40;2.63;;;;;;;19.19;100.00;100186.44;5033041;28;20069;-74
2021/05/27 07:28:29;;;;;;;3.90;2.35;;;;;;;19.36;100.00;100193.22;5033527;28;20080;-74
2021/05/27 07:30:54;;;;;;;4.43;2.33;;;;;;;19.18;100.00;100159.06;5032712;28;20103;-74
2021/05/27 07:33:20;;;;;;;5.43;2.50;;;;;;;19.13;100.00;100152.63;5033141;28;20475;-75
2021/05/27 07:35:46;;;;;;;6.50;3.08;;;;;;;19.19;100.00;100192.56;5031984;28;20029;-73
2021/05/27 07:38:12;;;;;;;7.20;2.70;;;;;;;19.18;100.00;100187.47;5031698;28;20029;-76
2021/05/27 07:40:38;;;;;;;7.28;3.38;;;;;;;19.01;100.00;100147.78;5032746;28;20026;-73
2021/05/27 07:43:03;;;;;;;4.60;2.50;;;;;;;19.24;100.00;100178.75;5032580;28;20026;-72
2021/05/27 07:45:29;;;;;;;4.55;1.90;;;;;;;19.15;100.00;100163.91;5030844;28;20480;-73
2021/05/27 07:47:54;;;;;;;4.95;2.67;;;;;;;19.08;100.00;100146.06;5031667;28;20464;-77
2021/05/27 07:50:21;;;;;;;4.85;3.05;;;;;;;18.86;100.00;100154.91;5032248;28;20029;-76
2021/05/27 07:52:47;;;;;;;5.50;2.80;;;;;;;18.75;100.00;100136.78;5030955;28;20064;-74
2021/05/27 07:55:13;;;;;;;7.97;2.97;;;;;;;18.90;100.00;100182.78;5030994;28;20083;-73
2021/05/27 07:57:39;;;;;;;8.38;3.50;;;;;;;18.83;100.00;100176.53;5031809;28;20511;-75
2021/05/27 08:00:07;;;;;;;5.93;3.05;;;;;;;19.07;100.00;100207.34;5032003;28;20030;-78
2021/05/27 08:02:33;;;;;;;4.70;2.80;;;;;;;18.70;100.00;100181.63;5031933;28;20141;-76
2021/05/27 08:04:58;;;;;;;6.50;3.22;;;;;;;18.95;100.00;100201.63;5030801;28;20030;-76
2021/05/27 08:07:24;;;;;;;8.98;3.33;;;;;;;18.95;100.00;100196.31;5031697;28;20507;-75
2021/05/27 08:09:49;;;;;;;4.15;2.85;;;;;;;19.14;100.00;100196.81;5031561;28;20496;-78
2021/05/27 08:12:15;;;;;;;4.15;2.88;;;;;;;19.06;100.00;100201.16;5030571;28;20022;-79
2021/05/27 08:14:40;;;;;;;7.35;3.13;;;;;;;19.08;100.00;100207.13;5031883;28;20026;-77
2021/05/27 08:17:06;;;;;;;4.30;2.85;;;;;;;19.18;100.00;100211.38;5031642;28;20021;-77
2021/05/27 08:19:32;;;;;;;3.47;2.67;;;;;;;19.15;100.00;100190.47;5031710;28;20128;-78
2021/05/27 08:21:58;;;;;;;5.43;2.40;;;;;;;19.31;100.00;100187.63;5028545;28;20060;-76
2021/05/27 08:24:23;;;;;;;4.80;3.03;;;;;;;19.33;100.00;100212.16;5031040;28;20104;-78
2021/05/27 08:26:49;;;;;;;3.60;2.28;;;;;;;19.21;100.00;100184.44;5031357;28;20037;-76
2021/05/27 08:29:15;;;;;;;5.70;2.80;;;;;;;19.43;100.00;100209.25;5031623;28;20072;-75
2021/05/27 08:31:41;;;;;;;4.70;2.45;;;;;;;19.40;100.00;100201.63;5031425;28;20029;-74
2021/05/27 08:34:10;;;;;;;4.70;2.40;;;;;;;19.29;100.00;100192.31;5031558;28;20033;-74
2021/05/27 08:36:38;;;;;;;5.07;3.00;;;;;;;19.23;100.00;100193.03;5030681;28;20079;-78
2021/05/27 08:39:05;;;;;;;6.00;2.28;;;;;;;19.07;100.00;100157.69;5016280;28;20504;-72
2021/05/27 08:41:31;;;;;;;5.43;3.10;;;;;;;19.02;100.00;100160.06;5016491;28;20037;-75
2021/05/27 08:43:57;;;;;;;4.57;3.38;;;;;;;18.81;100.00;100181.22;5011557;28;20061;-75
2021/05/27 08:46:23;;;;;;;4.35;2.83;;;;;;;18.96;100.00;100186.53;5013649;28;20069;-78
2021/05/27 08:48:49;;;;;;;6.65;3.67;;;;;;;19.01;100.00;100187.63;5016058;28;20064;-77
2021/05/27 08:51:16;;;;;;;5.13;3.38;;;;;;;19.14;100.00;100180.88;5019743;28;20034;-76
2021/05/27 08:53:41;;;;;;;4.93;2.90;;;;;;;19.14;100.00;100168.41;5010186;28;20117;-74
2021/05/27 08:56:07;;;;;;;5.00;3.38;;;;;;;19.25;100.00;100180.41;5020588;28;20112;-76
2021/05/27 08:58:32;;;;;;;5.43;3.45;;;;;;;19.43;100.00;100180.00;5020901;28;20515;-75
2021/05/27 09:00:58;;;;;;;9.48;2.97;;;;;;;19.61;100.00;100143.25;5018046;28;20531;-73
2021/05/27 09:03:41;;;;;;;5.57;3.30;;;;;;;20.15;100.00;100184.50;5021317;28;20034;-78
2021/05/27 09:06:07;;;;;;;5.97;3.78;;;;;;;20.26;100.00;100174.19;5024238;28;20033;-76
2021/05/27 09:08:35;;;;;;;8.32;3.05;;;;;;;20.50;100.00;100186.31;5025145;28;20048;-77
2021/05/27 09:11:03;;;;;;;6.78;3.45;;;;;;;20.03;100.00;100165.59;5020999;28;20034;-74
2021/05/27 09:13:28;;;;;;;8.32;3.13;;;;;;;20.39;100.00;100186.00;5019835;28;20022;-75
2021/05/27 09:16:05;;;;;;;6.10;3.42;;;;;;;20.39;100.00;100162.84;5013046;28;20568;-73
2021/05/27 09:18:32;;;;;;;7.18;3.30;;;;;;;20.33;100.00;100158.28;5014120;28;20041;-75
2021/05/27 09:20:58;;;;;;;6.45;3.55;;;;;;;20.28;100.00;100145.56;5017172;28;20036;-78
2021/05/27 09:23:24;;;;;;;7.72;3.58;;;;;;;20.45;100.00;100140.81;5015129;28;20108;-79
2021/05/27 09:25:58;;;;;;;7.63;3.50;;;;;;;20.71;100.00;100171.31;5033253;28;20418;-72
2021/05/27 09:28:29;;;;;;;5.32;3.67;;;;;;;20.71;100.00;100166.81;5009146;28;20026;-78
2021/05/27 09:30:58;;;;;;;5.43;3.47;;;;;;;20.78;100.00;100166.84;5018628;28;20034;-73
2021/05/27 09:33:30;;;;;;;6.77;3.20;;;;;;;20.65;100.00;100124.16;5015475;28;20063;-78
2021/05/27 09:36:01;;;;;;;4.28;2.80;;;;;;;20.96;100.00;100159.19;5019424;28;20034;-72
2021/05/27 09:38:29;;;;;;;9.27;4.18;;;;;;;21.10;100.00;100175.25;5020556;28;20099;-77
2021/05/27 09:40:54;;;;;;;5.07;3.30;;;;;;;21.06;100.00;100160.66;5018574;28;20492;-69
2021/05/27 09:43:23;;;;;;;5.68;3.42;;;;;;;20.98;100.00;100145.66;5026462;28;20029;-74
2021/05/27 09:46:06;;;;;;;8.13;3.80;;;;;;;21.23;100.00;100157.50;5026034;28;20038;-76
2021/05/27 09:48:33;;;;;;;5.38;3.80;;;;;;;21.47;100.00;100151.91;5018914;28;20045;-75
2021/05/27 09:51:01;;;;;;;6.30;3.58;;;;;;;21.37;100.00;100136.28;5022528;28;20025;-72
2021/05/27 09:53:27;;;;;;;6.40;3.00;;;;;;;21.44;100.00;100163.78;5019385;28;20049;-74
2021/05/27 09:55:57;;;;;;;3.78;2.30;;;;;;;21.52;100.00;100165.44;5026755;28;20036;-71
2021/05/27 09:58:23;;;;;;;;;;;;;;;21.60;100.00;100171.44;5023729;28;20108;-74
2021/05/27 10:00:50;;;;;;;5.32;3.50;;;;;;;21.40;100.00;100134.03;5011262;28;19959;-77
2021/05/27 10:03:37;;;;;;;12.00;3.50;;;;;;;21.47;100.00;100134.06;5026720;28;20056;-75
2021/05/27 10:06:10;;;;;;;4.72;2.33;;;;;;;21.50;100.00;100159.47;5019620;28;20562;-75
2021/05/27 10:09:06;;;;;;;12.90;3.42;;;;;;;21.25;100.00;100172.47;5027805;28;20059;-74
2021/05/27 10:11:31;;;;;;;19.30;4.47;;;;;;;21.34;100.00;100171.28;5018698;28;20044;-73
2021/05/27 10:13:58;;;;;;;4.35;2.97;;;;;;;21.29;100.00;100163.88;5023148;28;21521;-78
2021/05/27 10:16:24;;;;;;;9.07;3.05;;;;;;;21.35;100.00;100165.78;5020028;28;20480;-74
2021/05/27 10:18:53;;;;;;;10.02;3.80;;;;;;;21.40;100.00;100176.69;5027837;28;20049;-76
2021/05/27 10:21:19;;;;;;;7.13;3.00;;;;;;;21.49;100.00;100171.16;5025972;28;20029;-74
2021/05/27 10:23:45;;;;;;;5.05;2.58;;;;;;;21.36;100.00;100159.44;5020036;28;20416;-72
2021/05/27 10:26:11;;;;;;;7.03;2.53;;;;;;;21.29;100.00;100158.53;5027092;28;20053;-75
2021/05/27 10:28:37;;;;;;;5.40;2.75;;;;;;;21.31;100.00;100166.34;5023123;28;20048;-76
2021/05/27 10:31:03;;;;;;;5.47;2.85;;;;;;;21.28;100.00;100172.06;5023583;28;20026;-73
2021/05/27 10:33:37;;;;;;;12.43;3.65;;;;;;;21.23;100.00;100175.34;5016475;28;20049;-76
2021/05/27 10:36:03;;;;;;;6.68;2.80;;;;;;;21.19;100.00;100158.06;5012070;28;20037;-76
2021/05/27 10:41:09;;;;;;;6.55;2.83;;;;;;;21.28;100.00;100156.91;5012570;28;20525;-72
2021/05/27 10:43:35;;;;;;;6.72;2.45;;;;;;;21.27;100.00;100141.94;5016918;28;20021;-73
2021/05/27 10:46:04;;;;;;;7.85;2.92;;;;;;;21.36;100.00;100143.44;5015780;28;20036;-74
2021/05/27 10:48:41;;;;;;;4.77;2.13;;;;;;;21.27;100.00;100109.97;5019743;28;20095;-73
2021/05/27 10:53:38;;;;;;;5.43;2.90;;;;;;;21.44;100.00;100132.59;5022178;28;20022;-77
2021/05/27 10:56:07;;;;;;;4.05;2.42;;;;;;;21.55;100.00;100139.19;5019669;28;20033;-79
2021/05/27 11:01:17;;;;;;;4.22;2.40;;;;;;;21.55;100.00;100122.38;5023156;28;20033;-75
2021/05/27 11:03:50;;;;;;;4.88;2.90;;;;;;;21.34;100.00;100070.84;5017588;28;20633;-76
2021/05/27 11:06:20;;;;;;;4.35;2.42;;;;;;;21.49;100.00;100059.19;5022321;28;20049;-75
2021/05/27 11:08:47;;;;;;;4.10;2.80;;;;;;;21.70;100.00;100069.72;5024521;28;20033;-75
